createdAt,value
2022-12-27T00:00:38.006Z,75.50
2022-12-27T00:05:48.110Z,75.28
2022-12-27T00:10:51.040Z,75.61
2022-12-27T00:15:53.699Z,75.43
2022-12-27T00:21:00.397Z,75.46
2022-12-27T00:26:05.828Z,75.60
2022-12-27T00:31:08.758Z,75.13
2022-12-27T00:36:16.853Z,75.42
2022-12-27T00:41:20.426Z,75.08
2022-12-27T00:46:23.178Z,75.13
2022-12-27T00:51:26.463Z,75.07
2022-12-27T00:56:31.340Z,75.16
2022-12-27T01:01:36.063Z,74.67
2022-12-27T01:06:38.879Z,75.27
2022-12-27T01:11:42.031Z,75.02
2022-12-27T01:16:44.793Z,74.63
2022-12-27T01:21:47.530Z,75.13
2022-12-27T01:26:50.377Z,74.80
2022-12-27T01:31:53.270Z,74.23
2022-12-27T01:36:55.971Z,73.97
2022-12-27T01:42:17.414Z,73.77
2022-12-27T01:47:42.159Z,73.11
2022-12-27T01:52:56.978Z,72.75
2022-12-27T01:58:05.475Z,72.72
2022-12-27T02:03:08.341Z,72.60
2022-12-27T02:08:23.185Z,72.38
2022-12-27T02:13:26.356Z,72.27
2022-12-27T02:18:29.201Z,72.72
2022-12-27T02:24:13.130Z,72.66
2022-12-27T02:29:34.494Z,72.09
2022-12-27T02:34:51.823Z,71.94
2022-12-27T02:39:55.270Z,71.73
2022-12-27T02:45:16.142Z,72.11
2022-12-27T02:50:37.485Z,71.37
2022-12-27T02:56:11.025Z,71.41
2022-12-27T03:02:00.351Z,70.95
2022-12-27T03:07:26.779Z,71.04
2022-12-27T03:12:59.999Z,71.43
2022-12-27T03:18:15.261Z,71.25
2022-12-27T03:23:36.582Z,71.31
2022-12-27T03:28:58.138Z,71.46
2022-12-27T03:34:25.625Z,71.47
2022-12-27T03:39:32.192Z,71.94
2022-12-27T03:44:34.950Z,72.04
2022-12-27T03:49:48.939Z,72.63
2022-12-27T03:54:52.708Z,72.39
2022-12-27T03:59:55.665Z,72.08
2022-12-27T04:04:59.717Z,72.31
2022-12-27T04:10:21.038Z,72.33
2022-12-27T04:15:42.492Z,71.83
2022-12-27T04:21:03.458Z,71.88
2022-12-27T04:26:24.849Z,71.95
2022-12-27T04:31:46.028Z,71.76
2022-12-27T04:36:49.083Z,71.77
2022-12-27T04:42:10.079Z,71.25
2022-12-27T04:47:35.873Z,71.69
2022-12-27T04:52:56.857Z,71.08
2022-12-27T04:58:00.274Z,70.72
2022-12-27T05:03:05.894Z,70.63
2022-12-27T05:08:27.942Z,70.11
2022-12-27T05:13:49.156Z,70.22
2022-12-27T05:18:53.071Z,70.19
2022-12-27T05:24:14.506Z,70.14
2022-12-27T05:29:17.148Z,69.41
2022-12-27T05:34:19.891Z,69.59
2022-12-27T05:39:22.550Z,69.73
2022-12-27T05:44:25.425Z,70.06
2022-12-27T05:49:28.151Z,70.33
2022-12-27T05:54:30.887Z,70.27
2022-12-27T05:59:33.597Z,69.81
2022-12-27T06:04:36.266Z,69.63
2022-12-27T06:09:39.001Z,69.72
2022-12-27T06:14:42.087Z,70.09
2022-12-27T06:19:44.742Z,70.11
2022-12-27T06:24:47.615Z,70.06
2022-12-27T06:29:50.245Z,70.09
2022-12-27T06:34:52.916Z,70.27
2022-12-27T06:39:55.635Z,70.48
2022-12-27T06:44:58.377Z,70.45
2022-12-27T06:50:01.088Z,70.35
2022-12-27T06:55:04.722Z,70.17
2022-12-27T07:00:08.197Z,70.27
2022-12-27T07:05:10.854Z,70.52
2022-12-27T07:10:13.664Z,70.63
2022-12-27T07:15:16.505Z,70.65
2022-12-27T07:20:19.301Z,70.71
2022-12-27T07:25:21.926Z,70.45
2022-12-27T07:30:24.644Z,70.69
2022-12-27T07:35:27.307Z,70.66
2022-12-27T07:40:29.962Z,70.88
2022-12-27T07:45:33.072Z,71.00
2022-12-27T07:50:35.938Z,71.00
2022-12-27T07:55:38.583Z,70.57
2022-12-27T08:00:41.679Z,71.02
2022-12-27T08:05:48.640Z,70.98
2022-12-27T08:10:51.463Z,70.72
2022-12-27T08:15:54.293Z,70.34
2022-12-27T08:20:57.432Z,69.85
2022-12-27T08:26:01.120Z,70.05
2022-12-27T08:31:09.354Z,69.78
2022-12-27T08:36:54.007Z,69.59
2022-12-27T08:41:36.303Z,69.52
2022-12-27T08:46:39.066Z,69.57
2022-12-27T08:51:42.091Z,69.04
2022-12-27T08:56:44.957Z,69.54
2022-12-27T09:01:47.698Z,69.15
2022-12-27T09:06:50.525Z,69.45
2022-12-27T09:11:53.216Z,69.84
2022-12-27T09:16:56.089Z,69.93
2022-12-27T09:21:58.725Z,69.83
2022-12-27T09:27:01.396Z,69.80
2022-12-27T09:32:04.274Z,69.24
2022-12-27T09:37:07.138Z,68.96
2022-12-27T09:48:03.503Z,68.54
2022-12-27T09:53:17.673Z,67.99
2022-12-27T09:58:36.768Z,67.61
2022-12-27T10:03:39.416Z,67.08
2022-12-27T10:08:44.199Z,67.04
2022-12-27T10:13:57.827Z,67.00
2022-12-27T10:19:35.606Z,67.31
2022-12-27T10:24:50.882Z,66.95
2022-12-27T10:29:55.245Z,67.55
2022-12-27T10:35:03.037Z,67.58
2022-12-27T10:40:34.327Z,67.09
2022-12-27T10:45:39.872Z,66.95
2022-12-27T10:50:57.740Z,66.93
2022-12-27T10:56:17.625Z,66.91
2022-12-27T11:01:26.408Z,67.29
2022-12-27T11:06:29.268Z,66.73
2022-12-27T11:11:31.935Z,67.31
2022-12-27T11:16:36.495Z,67.07
2022-12-27T11:21:40.963Z,67.34
2022-12-27T11:26:54.029Z,67.29
2022-12-27T11:31:57.579Z,66.67
2022-12-27T11:37:16.470Z,66.55
2022-12-27T11:42:28.814Z,66.99
2022-12-27T11:47:36.632Z,66.93
2022-12-27T11:53:11.050Z,66.70
2022-12-27T11:58:41.349Z,66.94
2022-12-27T12:04:18.014Z,67.07
2022-12-27T12:09:26.781Z,67.15
2022-12-27T12:14:56.414Z,67.08
2022-12-27T12:20:36.587Z,67.22
2022-12-27T12:25:57.424Z,67.69
2022-12-27T12:31:34.198Z,67.33
2022-12-27T12:36:59.363Z,67.31
2022-12-27T12:42:25.048Z,67.22
2022-12-27T12:47:51.821Z,66.96
2022-12-27T12:53:15.932Z,66.83
2022-12-27T12:59:09.696Z,67.30
2022-12-27T13:04:49.592Z,67.80
2022-12-27T13:09:55.048Z,67.90
2022-12-27T13:15:17.079Z,68.07
2022-12-27T13:20:44.522Z,67.39
2022-12-27T13:25:58.777Z,67.17
2022-12-27T13:31:07.815Z,67.53
2022-12-27T13:36:19.276Z,67.34
2022-12-27T13:41:34.965Z,66.98
2022-12-27T13:46:54.577Z,66.98
2022-12-27T13:52:08.746Z,66.97
2022-12-27T13:57:23.625Z,67.02
2022-12-27T14:02:42.604Z,66.51
2022-12-27T14:08:20.628Z,66.32
2022-12-27T14:13:43.480Z,66.18
2022-12-27T14:19:01.846Z,66.43
2022-12-27T14:24:52.039Z,66.01
2022-12-27T14:30:19.180Z,65.95
2022-12-27T14:35:27.975Z,66.00
2022-12-27T14:40:45.757Z,65.62
2022-12-27T14:46:15.606Z,64.70
2022-12-27T14:52:02.449Z,65.20
2022-12-27T14:57:30.138Z,65.03
2022-12-27T15:02:48.247Z,64.57
2022-12-27T15:08:04.686Z,64.82
2022-12-27T15:13:30.460Z,65.26
2022-12-27T15:18:33.078Z,65.07
2022-12-27T15:23:50.555Z,65.23
2022-12-27T15:29:01.036Z,64.93
2022-12-27T15:34:15.646Z,64.98
2022-12-27T15:39:33.464Z,65.07
2022-12-27T15:45:06.329Z,64.50
2022-12-27T15:50:29.608Z,65.00
2022-12-27T15:55:50.793Z,64.22
2022-12-27T16:01:12.342Z,64.62
2022-12-27T16:06:33.838Z,64.60
2022-12-27T16:12:08.721Z,64.31
2022-12-27T16:17:14.315Z,64.62
2022-12-27T16:22:24.299Z,64.12
2022-12-27T16:27:32.911Z,64.53
2022-12-27T16:32:36.099Z,64.72
2022-12-27T16:37:45.179Z,64.90
2022-12-27T16:42:57.620Z,64.65
2022-12-27T16:48:18.545Z,64.04
2022-12-27T16:53:43.018Z,64.77
2022-12-27T16:58:45.834Z,64.24
2022-12-27T17:03:49.590Z,64.01
2022-12-27T17:09:10.881Z,64.12
2022-12-27T17:14:21.149Z,64.68
2022-12-27T17:19:36.634Z,64.74
2022-12-27T17:24:39.420Z,64.83
2022-12-27T17:29:47.904Z,65.16
2022-12-27T17:35:09.068Z,65.00
2022-12-27T17:40:26.959Z,65.68
2022-12-27T17:45:49.976Z,65.61
2022-12-27T17:50:55.380Z,65.66
2022-12-27T17:56:41.035Z,65.48
2022-12-27T18:01:43.948Z,65.44
2022-12-27T18:06:46.927Z,65.70
2022-12-27T18:11:49.698Z,65.78
2022-12-27T18:16:52.454Z,65.42
2022-12-27T18:21:58.581Z,65.62
2022-12-27T18:27:06.736Z,66.24
2022-12-27T18:32:10.315Z,66.59
2022-12-27T18:37:24.133Z,67.12
2022-12-27T18:42:41.426Z,67.30
2022-12-27T18:47:47.285Z,67.18
2022-12-27T18:53:04.367Z,67.54
2022-12-27T18:58:20.590Z,67.42
2022-12-27T19:03:23.822Z,67.95
2022-12-27T19:08:33.721Z,67.71
2022-12-27T19:13:44.372Z,68.09
2022-12-27T19:18:51.741Z,68.52
2022-12-27T19:23:54.355Z,68.14
2022-12-27T19:29:16.416Z,68.58
2022-12-27T19:34:19.739Z,68.69
2022-12-27T19:39:29.273Z,69.15
2022-12-27T19:44:32.609Z,68.40
2022-12-27T19:49:44.466Z,68.56
2022-12-27T19:54:48.668Z,68.43
2022-12-27T19:59:51.532Z,68.70
2022-12-27T20:04:54.536Z,68.48
2022-12-27T20:09:57.444Z,69.13
2022-12-27T20:15:00.227Z,69.10
2022-12-27T20:20:03.210Z,69.07
2022-12-27T20:25:06.549Z,68.48
2022-12-27T20:30:10.798Z,68.31
2022-12-27T20:35:13.532Z,68.23
2022-12-27T20:40:16.258Z,68.23
2022-12-27T20:45:19.082Z,68.12
2022-12-27T20:50:21.902Z,68.51
2022-12-27T20:55:24.721Z,68.26
2022-12-27T21:00:27.789Z,68.90
2022-12-27T21:05:30.569Z,68.74
2022-12-27T21:10:33.198Z,68.55
2022-12-27T21:15:42.113Z,68.42
2022-12-27T21:20:45.252Z,68.44
2022-12-27T21:25:47.888Z,68.37
2022-12-27T21:30:57.483Z,68.82
2022-12-27T21:36:08.855Z,68.75
2022-12-27T21:41:14.479Z,68.86
2022-12-27T21:46:22.006Z,68.66
2022-12-27T21:51:26.115Z,69.09
2022-12-27T21:56:29.121Z,68.50
2022-12-27T22:01:50.206Z,68.59
2022-12-27T22:06:54.867Z,69.00
2022-12-27T22:11:57.529Z,69.22
2022-12-27T22:17:02.377Z,67.94
2022-12-27T22:22:05.123Z,68.24
2022-12-27T22:27:07.861Z,68.47
2022-12-27T22:32:10.905Z,68.69
2022-12-27T22:37:13.548Z,68.35
2022-12-27T22:42:16.703Z,68.63
2022-12-27T22:47:27.866Z,68.12
2022-12-27T22:52:31.100Z,67.99
2022-12-27T22:57:33.786Z,67.21
2022-12-27T23:02:37.193Z,67.38
2022-12-27T23:08:04.892Z,67.59
2022-12-27T23:13:02.791Z,67.79
2022-12-27T23:18:05.687Z,67.83
2022-12-27T23:23:08.496Z,67.52
2022-12-27T23:28:11.180Z,67.48
2022-12-27T23:33:14.015Z,67.41
2022-12-27T23:38:16.761Z,67.57
2022-12-27T23:43:51.116Z,67.21
2022-12-27T23:48:42.604Z,67.98
2022-12-27T23:53:45.397Z,68.25
2022-12-27T23:58:49.138Z,68.07
